sensor_id;sensor_type;location;lat;lon;timestamp;pressure;altitude;pressure_sealevel;temperature;humidity
28027;BME280;15344;52.342;-1.290;2024-02-28T00:00:56;100526.54;;;11.36;99.35
28027;BME280;15344;52.342;-1.290;2024-02-28T00:03:21;100522.11;;;11.53;97.63
28027;BME280;15344;52.342;-1.290;2024-02-28T00:05:47;100531.04;;;11.25;100.00
28027;BME280;15344;52.342;-1.290;2024-02-28T00:08:12;100532.89;;;11.17;100.00
28027;BME280;15344;52.342;-1.290;2024-02-28T00:10:37;100532.00;;;10.97;100.00
28027;BME280;15344;52.342;-1.290;2024-02-28T00:13:03;100527.06;;;11.31;100.00
28027;BME280;15344;52.342;-1.290;2024-02-28T00:15:28;100520.33;;;10.94;100.00
28027;BME280;15344;52.342;-1.290;2024-02-28T00:17:54;100516.26;;;10.95;100.00
28027;BME280;15344;52.342;-1.290;2024-02-28T00:20:19;100520.37;;;10.87;100.00
28027;BME280;15344;52.342;-1.290;2024-02-28T00:22:45;100527.32;;;11.12;99.65
28027;BME280;15344;52.342;-1.290;2024-02-28T00:25:10;100535.48;;;11.04;100.00
28027;BME280;15344;52.342;-1.290;2024-02-28T00:27:35;100544.82;;;11.12;100.00
28027;BME280;15344;52.342;-1.290;2024-02-28T00:30:01;100540.00;;;10.57;100.00
28027;BME280;15344;52.342;-1.290;2024-02-28T00:32:26;100536.96;;;10.56;100.00
28027;BME280;15344;52.342;-1.290;2024-02-28T00:34:51;100540.52;;;10.52;100.00
28027;BME280;15344;52.342;-1.290;2024-02-28T00:37:17;100534.33;;;10.35;100.00
28027;BME280;15344;52.342;-1.290;2024-02-28T00:39:44;100531.11;;;10.82;100.00
28027;BME280;15344;52.342;-1.290;2024-02-28T00:42:08;100528.26;;;11.16;100.00
28027;BME280;15344;52.342;-1.290;2024-02-28T00:44:33;100525.39;;;10.43;100.00
28027;BME280;15344;52.342;-1.290;2024-02-28T00:46:58;100529.71;;;10.41;100.00
28027;BME280;15344;52.342;-1.290;2024-02-28T00:49:23;100536.31;;;10.23;100.00
28027;BME280;15344;52.342;-1.290;2024-02-28T00:51:49;100536.39;;;10.81;100.00
28027;BME280;15344;52.342;-1.290;2024-02-28T00:54:15;100535.54;;;10.64;100.00
28027;BME280;15344;52.342;-1.290;2024-02-28T00:56:40;100538.98;;;10.74;100.00
28027;BME280;15344;52.342;-1.290;2024-02-28T00:59:05;100541.77;;;10.61;100.00
28027;BME280;15344;52.342;-1.290;2024-02-28T01:01:30;100546.16;;;10.38;100.00
28027;BME280;15344;52.342;-1.290;2024-02-28T01:03:56;100545.01;;;10.35;100.00
28027;BME280;15344;52.342;-1.290;2024-02-28T01:06:21;100545.39;;;10.62;100.00
28027;BME280;15344;52.342;-1.290;2024-02-28T01:08:46;100544.30;;;10.89;100.00
28027;BME280;15344;52.342;-1.290;2024-02-28T01:11:11;100545.99;;;10.92;99.35
28027;BME280;15344;52.342;-1.290;2024-02-28T01:13:37;100542.55;;;11.06;97.96
28027;BME280;15344;52.342;-1.290;2024-02-28T01:16:03;100542.92;;;10.97;96.42
28027;BME280;15344;52.342;-1.290;2024-02-28T01:18:27;100543.03;;;10.56;98.77
28027;BME280;15344;52.342;-1.290;2024-02-28T01:20:53;100545.78;;;10.08;99.97
28027;BME280;15344;52.342;-1.290;2024-02-28T01:23:19;100549.04;;;10.59;98.52
28027;BME280;15344;52.342;-1.290;2024-02-28T01:25:44;100553.73;;;10.51;97.37
28027;BME280;15344;52.342;-1.290;2024-02-28T01:28:09;100558.38;;;10.56;98.37
28027;BME280;15344;52.342;-1.290;2024-02-28T01:30:34;100565.77;;;10.57;97.03
28027;BME280;15344;52.342;-1.290;2024-02-28T01:33:00;100576.66;;;10.00;100.00
28027;BME280;15344;52.342;-1.290;2024-02-28T01:35:25;100576.96;;;9.57;100.00
28027;BME280;15344;52.342;-1.290;2024-02-28T01:37:51;100575.97;;;9.46;100.00
28027;BME280;15344;52.342;-1.290;2024-02-28T01:40:17;100574.73;;;9.20;100.00
28027;BME280;15344;52.342;-1.290;2024-02-28T01:42:42;100567.16;;;9.56;100.00
28027;BME280;15344;52.342;-1.290;2024-02-28T01:45:13;100566.13;;;9.74;100.00
28027;BME280;15344;52.342;-1.290;2024-02-28T01:47:33;100559.15;;;9.69;100.00
28027;BME280;15344;52.342;-1.290;2024-02-28T01:49:58;100559.65;;;10.13;100.00
28027;BME280;15344;52.342;-1.290;2024-02-28T01:52:24;100555.27;;;10.00;99.84
28027;BME280;15344;52.342;-1.290;2024-02-28T01:54:49;100546.58;;;10.33;98.17
28027;BME280;15344;52.342;-1.290;2024-02-28T01:57:14;100546.02;;;10.23;98.15
28027;BME280;15344;52.342;-1.290;2024-02-28T01:59:41;100547.07;;;10.30;97.34
28027;BME280;15344;52.342;-1.290;2024-02-28T02:02:06;100544.50;;;10.14;97.21
28027;BME280;15344;52.342;-1.290;2024-02-28T02:04:31;100545.51;;;10.35;97.73
28027;BME280;15344;52.342;-1.290;2024-02-28T02:06:56;100550.95;;;10.43;97.19
28027;BME280;15344;52.342;-1.290;2024-02-28T02:09:21;100554.34;;;10.60;96.02
28027;BME280;15344;52.342;-1.290;2024-02-28T02:11:47;100556.98;;;10.31;96.38
28027;BME280;15344;52.342;-1.290;2024-02-28T02:14:14;100555.98;;;10.52;94.92
28027;BME280;15344;52.342;-1.290;2024-02-28T02:16:37;100553.73;;;10.23;94.57
28027;BME280;15344;52.342;-1.290;2024-02-28T02:19:03;100557.92;;;10.28;94.01
28027;BME280;15344;52.342;-1.290;2024-02-28T02:21:31;100560.28;;;10.29;93.62
28027;BME280;15344;52.342;-1.290;2024-02-28T02:23:54;100561.73;;;10.46;92.14
28027;BME280;15344;52.342;-1.290;2024-02-28T02:26:20;100558.63;;;10.20;92.17
28027;BME280;15344;52.342;-1.290;2024-02-28T02:28:45;100558.54;;;10.49;91.66
28027;BME280;15344;52.342;-1.290;2024-02-28T02:31:13;100559.31;;;10.54;91.22
28027;BME280;15344;52.342;-1.290;2024-02-28T02:33:36;100558.32;;;10.17;92.75
28027;BME280;15344;52.342;-1.290;2024-02-28T02:36:03;100552.79;;;10.13;92.71
28027;BME280;15344;52.342;-1.290;2024-02-28T02:38:27;100547.24;;;10.02;92.30
28027;BME280;15344;52.342;-1.290;2024-02-28T02:40:52;100552.23;;;10.69;91.20
28027;BME280;15344;52.342;-1.290;2024-02-28T02:43:18;100559.51;;;10.32;91.80
28027;BME280;15344;52.342;-1.290;2024-02-28T02:45:44;100561.21;;;10.17;91.71
28027;BME280;15344;52.342;-1.290;2024-02-28T02:48:08;100561.62;;;10.47;91.64
28027;BME280;15344;52.342;-1.290;2024-02-28T02:50:34;100559.02;;;10.03;92.23
28027;BME280;15344;52.342;-1.290;2024-02-28T02:53:00;100557.35;;;10.27;91.65
28027;BME280;15344;52.342;-1.290;2024-02-28T02:55:25;100557.98;;;10.26;91.68
28027;BME280;15344;52.342;-1.290;2024-02-28T02:57:50;100560.97;;;10.44;91.46
28027;BME280;15344;52.342;-1.290;2024-02-28T03:00:16;100552.28;;;10.34;90.61
28027;BME280;15344;52.342;-1.290;2024-02-28T03:02:41;100542.73;;;10.12;92.08
28027;BME280;15344;52.342;-1.290;2024-02-28T03:05:07;100538.14;;;10.09;92.19
28027;BME280;15344;52.342;-1.290;2024-02-28T03:07:32;100537.92;;;10.17;91.37
28027;BME280;15344;52.342;-1.290;2024-02-28T03:09:58;100534.35;;;9.84;90.76
28027;BME280;15344;52.342;-1.290;2024-02-28T03:12:23;100533.63;;;10.46;90.18
28027;BME280;15344;52.342;-1.290;2024-02-28T03:14:48;100535.09;;;10.37;90.20
28027;BME280;15344;52.342;-1.290;2024-02-28T03:17:14;100524.50;;;10.24;90.23
28027;BME280;15344;52.342;-1.290;2024-02-28T03:19:39;100526.25;;;10.01;91.76
28027;BME280;15344;52.342;-1.290;2024-02-28T03:22:04;100523.51;;;10.67;90.28
28027;BME280;15344;52.342;-1.290;2024-02-28T03:24:30;100520.28;;;10.31;90.88
28027;BME280;15344;52.342;-1.290;2024-02-28T03:26:55;100510.40;;;10.44;90.27
28027;BME280;15344;52.342;-1.290;2024-02-28T03:29:21;100515.02;;;10.47;90.23
28027;BME280;15344;52.342;-1.290;2024-02-28T03:31:46;100514.39;;;9.90;91.61
28027;BME280;15344;52.342;-1.290;2024-02-28T03:34:12;100513.56;;;10.21;92.26
28027;BME280;15344;52.342;-1.290;2024-02-28T03:36:37;100505.16;;;10.31;91.06
28027;BME280;15344;52.342;-1.290;2024-02-28T03:39:03;100505.02;;;10.66;91.09
28027;BME280;15344;52.342;-1.290;2024-02-28T03:41:28;100508.50;;;10.03;91.33
28027;BME280;15344;52.342;-1.290;2024-02-28T03:43:53;100510.37;;;10.34;91.07
28027;BME280;15344;52.342;-1.290;2024-02-28T03:46:19;100510.43;;;9.77;91.07
28027;BME280;15344;52.342;-1.290;2024-02-28T03:48:44;100504.08;;;10.44;90.08
28027;BME280;15344;52.342;-1.290;2024-02-28T03:51:10;100505.71;;;9.77;90.37
28027;BME280;15344;52.342;-1.290;2024-02-28T03:53:35;100508.79;;;10.25;89.99
28027;BME280;15344;52.342;-1.290;2024-02-28T03:56:00;100500.92;;;10.40;89.55
28027;BME280;15344;52.342;-1.290;2024-02-28T03:58:26;100497.98;;;10.48;89.33
28027;BME280;15344;52.342;-1.290;2024-02-28T04:00:51;100501.16;;;10.53;90.87
28027;BME280;15344;52.342;-1.290;2024-02-28T04:03:16;100504.72;;;10.26;90.85
28027;BME280;15344;52.342;-1.290;2024-02-28T04:05:41;100490.67;;;10.02;92.11
28027;BME280;15344;52.342;-1.290;2024-02-28T04:08:07;100494.71;;;10.06;91.82
28027;BME280;15344;52.342;-1.290;2024-02-28T04:10:32;100499.11;;;9.75;91.16
28027;BME280;15344;52.342;-1.290;2024-02-28T04:12:57;100494.38;;;10.38;90.12
28027;BME280;15344;52.342;-1.290;2024-02-28T04:15:23;100496.17;;;9.98;90.54
28027;BME280;15344;52.342;-1.290;2024-02-28T04:17:48;100492.91;;;10.44;90.47
28027;BME280;15344;52.342;-1.290;2024-02-28T04:20:15;100489.12;;;10.39;90.23
28027;BME280;15344;52.342;-1.290;2024-02-28T04:22:39;100493.19;;;10.43;89.10
28027;BME280;15344;52.342;-1.290;2024-02-28T04:25:07;100486.00;;;10.21;90.82
28027;BME280;15344;52.342;-1.290;2024-02-28T04:27:30;100481.83;;;9.86;92.43
28027;BME280;15344;52.342;-1.290;2024-02-28T04:29:55;100480.64;;;9.88;94.91
28027;BME280;15344;52.342;-1.290;2024-02-28T04:32:21;100480.44;;;9.44;97.78
28027;BME280;15344;52.342;-1.290;2024-02-28T04:34:46;100476.71;;;9.44;98.95
28027;BME280;15344;52.342;-1.290;2024-02-28T04:37:12;100482.63;;;9.26;100.00
28027;BME280;15344;52.342;-1.290;2024-02-28T04:39:37;100487.29;;;9.33;99.78
28027;BME280;15344;52.342;-1.290;2024-02-28T04:42:03;100474.52;;;9.24;98.56
28027;BME280;15344;52.342;-1.290;2024-02-28T04:44:28;100461.82;;;9.89;97.45
28027;BME280;15344;52.342;-1.290;2024-02-28T04:46:53;100470.89;;;10.11;96.81
28027;BME280;15344;52.342;-1.290;2024-02-28T04:49:19;100459.48;;;9.91;95.44
28027;BME280;15344;52.342;-1.290;2024-02-28T04:51:44;100466.01;;;10.16;95.20
28027;BME280;15344;52.342;-1.290;2024-02-28T04:54:10;100462.15;;;10.26;94.23
28027;BME280;15344;52.342;-1.290;2024-02-28T04:56:40;100455.34;;;10.30;93.54
28027;BME280;15344;52.342;-1.290;2024-02-28T04:59:01;100460.37;;;10.24;92.23
28027;BME280;15344;52.342;-1.290;2024-02-28T05:01:26;100456.01;;;10.22;92.39
28027;BME280;15344;52.342;-1.290;2024-02-28T05:03:51;100460.70;;;10.51;91.99
28027;BME280;15344;52.342;-1.290;2024-02-28T05:06:17;100458.24;;;10.31;90.27
28027;BME280;15344;52.342;-1.290;2024-02-28T05:08:42;100453.61;;;10.79;90.99
28027;BME280;15344;52.342;-1.290;2024-02-28T05:11:08;100459.31;;;10.27;90.00
28027;BME280;15344;52.342;-1.290;2024-02-28T05:13:35;100458.05;;;10.67;90.35
28027;BME280;15344;52.342;-1.290;2024-02-28T05:15:59;100460.38;;;10.73;90.13
28027;BME280;15344;52.342;-1.290;2024-02-28T05:18:24;100462.80;;;10.78;90.62
28027;BME280;15344;52.342;-1.290;2024-02-28T05:20:50;100454.62;;;10.52;90.30
28027;BME280;15344;52.342;-1.290;2024-02-28T05:23:15;100455.76;;;10.55;90.49
28027;BME280;15344;52.342;-1.290;2024-02-28T05:25:41;100458.42;;;11.01;89.46
28027;BME280;15344;52.342;-1.290;2024-02-28T05:28:06;100458.20;;;10.75;90.59
28027;BME280;15344;52.342;-1.290;2024-02-28T05:30:31;100455.61;;;10.65;91.86
28027;BME280;15344;52.342;-1.290;2024-02-28T05:32:57;100437.62;;;10.56;91.04
28027;BME280;15344;52.342;-1.290;2024-02-28T05:35:22;100427.00;;;10.45;90.16
28027;BME280;15344;52.342;-1.290;2024-02-28T05:37:47;100434.40;;;11.05;89.43
28027;BME280;15344;52.342;-1.290;2024-02-28T05:40:13;100422.70;;;10.67;88.88
28027;BME280;15344;52.342;-1.290;2024-02-28T05:42:38;100426.47;;;11.01;88.98
28027;BME280;15344;52.342;-1.290;2024-02-28T05:45:04;100424.65;;;10.09;90.06
28027;BME280;15344;52.342;-1.290;2024-02-28T05:47:29;100416.98;;;10.60;89.96
28027;BME280;15344;52.342;-1.290;2024-02-28T05:49:55;100413.18;;;10.79;88.96
28027;BME280;15344;52.342;-1.290;2024-02-28T05:52:20;100416.27;;;10.64;89.60
28027;BME280;15344;52.342;-1.290;2024-02-28T05:54:45;100410.74;;;10.63;90.10
28027;BME280;15344;52.342;-1.290;2024-02-28T05:57:11;100407.58;;;10.78;90.59
28027;BME280;15344;52.342;-1.290;2024-02-28T05:59:36;100406.44;;;10.81;91.55
28027;BME280;15344;52.342;-1.290;2024-02-28T06:02:01;100412.05;;;10.08;93.03
28027;BME280;15344;52.342;-1.290;2024-02-28T06:04:27;100406.10;;;10.69;90.80
28027;BME280;15344;52.342;-1.290;2024-02-28T06:06:52;100413.60;;;10.54;89.78
28027;BME280;15344;52.342;-1.290;2024-02-28T06:09:18;100416.89;;;10.47;90.05
28027;BME280;15344;52.342;-1.290;2024-02-28T06:11:44;100420.29;;;10.25;90.21
28027;BME280;15344;52.342;-1.290;2024-02-28T06:14:09;100423.96;;;10.70;90.31
28027;BME280;15344;52.342;-1.290;2024-02-28T06:16:34;100424.30;;;10.28;90.83
28027;BME280;15344;52.342;-1.290;2024-02-28T06:18:59;100421.01;;;10.79;88.67
28027;BME280;15344;52.342;-1.290;2024-02-28T06:21:25;100425.22;;;10.59;89.31
28027;BME280;15344;52.342;-1.290;2024-02-28T06:23:50;100416.97;;;10.51;89.97
28027;BME280;15344;52.342;-1.290;2024-02-28T06:26:16;100420.04;;;9.89;91.82
28027;BME280;15344;52.342;-1.290;2024-02-28T06:28:41;100421.10;;;9.94;94.00
28027;BME280;15344;52.342;-1.290;2024-02-28T06:31:13;100417.62;;;10.14;93.39
28027;BME280;15344;52.342;-1.290;2024-02-28T06:33:32;100413.93;;;10.24;93.22
28027;BME280;15344;52.342;-1.290;2024-02-28T06:35:58;100412.01;;;10.54;92.48
28027;BME280;15344;52.342;-1.290;2024-02-28T06:38:23;100413.35;;;10.04;91.66
28027;BME280;15344;52.342;-1.290;2024-02-28T06:40:48;100415.67;;;10.25;93.89
28027;BME280;15344;52.342;-1.290;2024-02-28T06:43:14;100418.09;;;10.34;92.27
28027;BME280;15344;52.342;-1.290;2024-02-28T06:45:39;100418.03;;;10.24;92.40
28027;BME280;15344;52.342;-1.290;2024-02-28T06:48:06;100417.33;;;9.66;96.94
28027;BME280;15344;52.342;-1.290;2024-02-28T06:50:30;100421.10;;;9.33;99.66
28027;BME280;15344;52.342;-1.290;2024-02-28T06:52:56;100421.11;;;9.50;98.77
28027;BME280;15344;52.342;-1.290;2024-02-28T06:55:21;100419.88;;;8.77;100.00
28027;BME280;15344;52.342;-1.290;2024-02-28T06:57:46;100416.19;;;8.91;98.96
28027;BME280;15344;52.342;-1.290;2024-02-28T07:00:13;100417.47;;;8.97;100.00
28027;BME280;15344;52.342;-1.290;2024-02-28T07:02:37;100404.97;;;9.13;98.93
28027;BME280;15344;52.342;-1.290;2024-02-28T07:05:03;100398.02;;;9.01;100.00
28027;BME280;15344;52.342;-1.290;2024-02-28T07:07:28;100392.40;;;9.25;99.64
28027;BME280;15344;52.342;-1.290;2024-02-28T07:09:54;100394.93;;;9.19;99.83
28027;BME280;15344;52.342;-1.290;2024-02-28T07:12:20;100394.38;;;9.12;100.00
28027;BME280;15344;52.342;-1.290;2024-02-28T07:14:45;100394.82;;;9.54;97.05
28027;BME280;15344;52.342;-1.290;2024-02-28T07:17:11;100400.15;;;9.58;98.08
28027;BME280;15344;52.342;-1.290;2024-02-28T07:19:36;100403.54;;;9.51;98.97
28027;BME280;15344;52.342;-1.290;2024-02-28T07:22:01;100403.08;;;9.43;99.06
28027;BME280;15344;52.342;-1.290;2024-02-28T07:24:26;100411.39;;;9.42;98.49
28027;BME280;15344;52.342;-1.290;2024-02-28T07:26:52;100415.42;;;9.47;99.33
28027;BME280;15344;52.342;-1.290;2024-02-28T07:29:17;100415.17;;;8.66;100.00
28027;BME280;15344;52.342;-1.290;2024-02-28T07:31:43;100400.53;;;9.34;100.00
28027;BME280;15344;52.342;-1.290;2024-02-28T07:34:08;100403.89;;;9.26;100.00
28027;BME280;15344;52.342;-1.290;2024-02-28T07:36:34;100407.75;;;9.49;100.00
28027;BME280;15344;52.342;-1.290;2024-02-28T07:38:59;100404.56;;;9.53;100.00
28027;BME280;15344;52.342;-1.290;2024-02-28T07:41:24;100415.89;;;9.92;100.00
28027;BME280;15344;52.342;-1.290;2024-02-28T07:43:50;100419.95;;;9.70;100.00
28027;BME280;15344;52.342;-1.290;2024-02-28T07:46:15;100420.53;;;8.96;100.00
28027;BME280;15344;52.342;-1.290;2024-02-28T07:48:41;100415.96;;;9.28;100.00
28027;BME280;15344;52.342;-1.290;2024-02-28T07:51:06;100415.91;;;9.81;100.00
28027;BME280;15344;52.342;-1.290;2024-02-28T07:53:32;100416.06;;;9.79;100.00
28027;BME280;15344;52.342;-1.290;2024-02-28T07:55:57;100412.44;;;10.13;100.00
28027;BME280;15344;52.342;-1.290;2024-02-28T07:58:23;100410.77;;;9.88;100.00
28027;BME280;15344;52.342;-1.290;2024-02-28T08:00:49;100413.54;;;10.39;98.93
28027;BME280;15344;52.342;-1.290;2024-02-28T08:03:14;100417.65;;;10.74;96.54
28027;BME280;15344;52.342;-1.290;2024-02-28T08:05:39;100420.61;;;10.67;96.42
28027;BME280;15344;52.342;-1.290;2024-02-28T08:08:04;100431.02;;;11.18;93.93
28027;BME280;15344;52.342;-1.290;2024-02-28T08:10:29;100426.49;;;10.91;96.22
28027;BME280;15344;52.342;-1.290;2024-02-28T08:12:55;100419.28;;;11.00;95.27
28027;BME280;15344;52.342;-1.290;2024-02-28T08:15:20;100421.91;;;10.21;95.63
28027;BME280;15344;52.342;-1.290;2024-02-28T08:17:45;100423.92;;;10.46;98.64
28027;BME280;15344;52.342;-1.290;2024-02-28T08:20:11;100418.05;;;11.01;97.61
28027;BME280;15344;52.342;-1.290;2024-02-28T08:22:36;100424.56;;;11.23;95.51
28027;BME280;15344;52.342;-1.290;2024-02-28T08:25:02;100424.70;;;10.36;100.00
28027;BME280;15344;52.342;-1.290;2024-02-28T08:27:27;100425.12;;;10.50;100.00
28027;BME280;15344;52.342;-1.290;2024-02-28T08:29:52;100417.40;;;10.00;100.00
28027;BME280;15344;52.342;-1.290;2024-02-28T08:32:18;100415.31;;;9.71;100.00
28027;BME280;15344;52.342;-1.290;2024-02-28T08:34:44;100416.21;;;9.44;100.00
28027;BME280;15344;52.342;-1.290;2024-02-28T08:37:08;100417.96;;;10.12;100.00
28027;BME280;15344;52.342;-1.290;2024-02-28T08:39:33;100418.58;;;10.53;100.00
28027;BME280;15344;52.342;-1.290;2024-02-28T08:41:59;100425.44;;;10.71;100.00
28027;BME280;15344;52.342;-1.290;2024-02-28T08:44:25;100423.36;;;10.70;100.00
28027;BME280;15344;52.342;-1.290;2024-02-28T08:46:50;100414.78;;;11.13;100.00
28027;BME280;15344;52.342;-1.290;2024-02-28T08:49:15;100408.90;;;10.35;100.00
28027;BME280;15344;52.342;-1.290;2024-02-28T08:51:40;100402.96;;;11.31;100.00
28027;BME280;15344;52.342;-1.290;2024-02-28T08:54:05;100401.57;;;10.62;100.00
28027;BME280;15344;52.342;-1.290;2024-02-28T08:56:31;100398.24;;;10.60;100.00
28027;BME280;15344;52.342;-1.290;2024-02-28T08:58:56;100401.80;;;10.76;100.00
28027;BME280;15344;52.342;-1.290;2024-02-28T09:01:22;100407.11;;;10.72;100.00
28027;BME280;15344;52.342;-1.290;2024-02-28T09:03:48;100407.27;;;10.51;100.00
28027;BME280;15344;52.342;-1.290;2024-02-28T09:06:14;100397.64;;;10.05;100.00
28027;BME280;15344;52.342;-1.290;2024-02-28T09:08:38;100391.22;;;10.26;100.00
28027;BME280;15344;52.342;-1.290;2024-02-28T09:11:04;100387.65;;;8.96;100.00
28027;BME280;15344;52.342;-1.290;2024-02-28T09:13:30;100384.19;;;9.46;100.00
28027;BME280;15344;52.342;-1.290;2024-02-28T09:15:55;100385.46;;;8.57;100.00
28027;BME280;15344;52.342;-1.290;2024-02-28T09:18:20;100382.51;;;8.65;100.00
28027;BME280;15344;52.342;-1.290;2024-02-28T09:20:45;100382.82;;;8.68;100.00
28027;BME280;15344;52.342;-1.290;2024-02-28T09:23:10;100385.36;;;8.75;100.00
28027;BME280;15344;52.342;-1.290;2024-02-28T09:25:36;100384.15;;;8.76;100.00
28027;BME280;15344;52.342;-1.290;2024-02-28T09:28:02;100380.37;;;9.35;100.00
28027;BME280;15344;52.342;-1.290;2024-02-28T09:30:26;100380.88;;;8.52;100.00
28027;BME280;15344;52.342;-1.290;2024-02-28T09:32:52;100380.67;;;9.84;100.00
28027;BME280;15344;52.342;-1.290;2024-02-28T09:35:17;100374.79;;;9.26;100.00
28027;BME280;15344;52.342;-1.290;2024-02-28T09:37:42;100369.19;;;9.10;100.00
28027;BME280;15344;52.342;-1.290;2024-02-28T09:40:09;100368.98;;;9.58;100.00
28027;BME280;15344;52.342;-1.290;2024-02-28T09:42:33;100363.76;;;9.44;100.00
28027;BME280;15344;52.342;-1.290;2024-02-28T09:45:00;100363.16;;;9.85;100.00
28027;BME280;15344;52.342;-1.290;2024-02-28T09:47:23;100358.63;;;10.07;100.00
28027;BME280;15344;52.342;-1.290;2024-02-28T09:49:50;100362.15;;;9.61;100.00
28027;BME280;15344;52.342;-1.290;2024-02-28T09:52:14;100362.58;;;9.53;100.00
28027;BME280;15344;52.342;-1.290;2024-02-28T09:54:40;100367.98;;;9.48;100.00
28027;BME280;15344;52.342;-1.290;2024-02-28T09:57:05;100369.25;;;10.24;100.00
28027;BME280;15344;52.342;-1.290;2024-02-28T09:59:31;100363.80;;;10.23;100.00
28027;BME280;15344;52.342;-1.290;2024-02-28T10:01:57;100359.01;;;10.50;100.00
28027;BME280;15344;52.342;-1.290;2024-02-28T10:04:20;100357.43;;;10.13;100.00
28027;BME280;15344;52.342;-1.290;2024-02-28T10:06:46;100356.93;;;10.45;100.00
28027;BME280;15344;52.342;-1.290;2024-02-28T10:09:11;100353.92;;;9.82;100.00
28027;BME280;15344;52.342;-1.290;2024-02-28T10:11:36;100351.66;;;10.23;100.00
28027;BME280;15344;52.342;-1.290;2024-02-28T10:14:02;100346.33;;;10.77;100.00
28027;BME280;15344;52.342;-1.290;2024-02-28T10:16:27;100345.53;;;10.47;100.00
28027;BME280;15344;52.342;-1.290;2024-02-28T10:18:53;100336.51;;;10.74;100.00
28027;BME280;15344;52.342;-1.290;2024-02-28T10:21:18;100337.06;;;10.44;100.00
28027;BME280;15344;52.342;-1.290;2024-02-28T10:23:44;100327.06;;;10.80;100.00
28027;BME280;15344;52.342;-1.290;2024-02-28T10:26:09;100326.08;;;10.33;100.00
28027;BME280;15344;52.342;-1.290;2024-02-28T10:28:36;100317.98;;;10.17;100.00
28027;BME280;15344;52.342;-1.290;2024-02-28T10:30:59;100313.44;;;9.42;100.00
28027;BME280;15344;52.342;-1.290;2024-02-28T10:33:27;100308.91;;;9.29;100.00
28027;BME280;15344;52.342;-1.290;2024-02-28T10:35:50;100303.56;;;9.29;100.00
28027;BME280;15344;52.342;-1.290;2024-02-28T10:38:14;100301.82;;;9.49;100.00
28027;BME280;15344;52.342;-1.290;2024-02-28T10:40:40;100299.20;;;9.47;100.00
28027;BME280;15344;52.342;-1.290;2024-02-28T10:43:08;100298.20;;;9.43;100.00
28027;BME280;15344;52.342;-1.290;2024-02-28T10:45:31;100293.37;;;10.14;100.00
28027;BME280;15344;52.342;-1.290;2024-02-28T10:47:56;100291.01;;;10.25;100.00
28027;BME280;15344;52.342;-1.290;2024-02-28T10:50:21;100293.66;;;10.13;100.00
28027;BME280;15344;52.342;-1.290;2024-02-28T10:52:48;100292.71;;;9.99;100.00
28027;BME280;15344;52.342;-1.290;2024-02-28T10:55:14;100294.66;;;9.79;100.00
28027;BME280;15344;52.342;-1.290;2024-02-28T10:57:38;100292.83;;;9.60;100.00
28027;BME280;15344;52.342;-1.290;2024-02-28T11:00:05;100291.69;;;9.62;100.00
28027;BME280;15344;52.342;-1.290;2024-02-28T11:02:28;100289.75;;;10.38;100.00
28027;BME280;15344;52.342;-1.290;2024-02-28T11:04:54;100286.94;;;10.24;100.00
28027;BME280;15344;52.342;-1.290;2024-02-28T11:07:20;100285.05;;;10.26;100.00
28027;BME280;15344;52.342;-1.290;2024-02-28T11:09:45;100276.96;;;10.82;100.00
28027;BME280;15344;52.342;-1.290;2024-02-28T11:14:34;100259.33;;;10.70;100.00
28027;BME280;15344;52.342;-1.290;2024-02-28T11:17:00;100263.48;;;10.35;100.00
28027;BME280;15344;52.342;-1.290;2024-02-28T11:19:25;100258.27;;;10.33;100.00
28027;BME280;15344;52.342;-1.290;2024-02-28T11:21:53;100250.04;;;9.27;100.00
28027;BME280;15344;52.342;-1.290;2024-02-28T11:24:15;100248.96;;;8.78;100.00
28027;BME280;15344;52.342;-1.290;2024-02-28T11:26:40;100241.12;;;9.99;100.00
28027;BME280;15344;52.342;-1.290;2024-02-28T11:29:07;100226.23;;;10.22;100.00
28027;BME280;15344;52.342;-1.290;2024-02-28T11:31:32;100215.19;;;9.73;100.00
28027;BME280;15344;52.342;-1.290;2024-02-28T11:33:57;100205.57;;;10.39;100.00
28027;BME280;15344;52.342;-1.290;2024-02-28T11:36:22;100212.12;;;10.42;100.00
28027;BME280;15344;52.342;-1.290;2024-02-28T11:38:49;100219.95;;;10.11;100.00
28027;BME280;15344;52.342;-1.290;2024-02-28T11:41:14;100216.66;;;10.39;100.00
28027;BME280;15344;52.342;-1.290;2024-02-28T11:43:39;100221.90;;;10.16;100.00
28027;BME280;15344;52.342;-1.290;2024-02-28T11:46:08;100222.87;;;10.27;100.00
28027;BME280;15344;52.342;-1.290;2024-02-28T11:48:29;100230.83;;;10.18;100.00
28027;BME280;15344;52.342;-1.290;2024-02-28T11:50:55;100223.86;;;9.59;100.00
28027;BME280;15344;52.342;-1.290;2024-02-28T11:53:20;100211.92;;;10.44;100.00
28027;BME280;15344;52.342;-1.290;2024-02-28T11:55:46;100209.07;;;10.34;100.00
28027;BME280;15344;52.342;-1.290;2024-02-28T11:58:11;100207.20;;;10.63;100.00
28027;BME280;15344;52.342;-1.290;2024-02-28T12:03:05;100204.23;;;9.59;100.00
28027;BME280;15344;52.342;-1.290;2024-02-28T12:05:27;100200.32;;;10.20;100.00
28027;BME280;15344;52.342;-1.290;2024-02-28T12:07:53;100195.93;;;10.97;100.00
28027;BME280;15344;52.342;-1.290;2024-02-28T12:10:19;100183.87;;;10.46;100.00
28027;BME280;15344;52.342;-1.290;2024-02-28T12:12:44;100172.64;;;10.73;100.00
28027;BME280;15344;52.342;-1.290;2024-02-28T12:15:10;100168.50;;;10.16;100.00
28027;BME280;15344;52.342;-1.290;2024-02-28T12:17:36;100165.97;;;10.66;100.00
28027;BME280;15344;52.342;-1.290;2024-02-28T12:20:00;100163.57;;;10.43;100.00
28027;BME280;15344;52.342;-1.290;2024-02-28T12:22:26;100162.88;;;10.38;100.00
28027;BME280;15344;52.342;-1.290;2024-02-28T12:24:51;100157.07;;;10.53;100.00
28027;BME280;15344;52.342;-1.290;2024-02-28T12:27:16;100153.21;;;9.64;100.00
28027;BME280;15344;52.342;-1.290;2024-02-28T12:29:41;100151.93;;;10.02;100.00
28027;BME280;15344;52.342;-1.290;2024-02-28T12:32:07;100147.10;;;9.92;100.00